Latest Coastal Weather Observations for Arlington Reef

IDQ60701

Issued at 11:02 am EST Saturday 13 April 2024 (issued every 10 minutes, with the page automatically refreshed every 10 minutes)

About coastal observations | Map of coastal stations | Coastal observations for QLD | Marine services | Other Formats
Station Details ID: 200879 Name: ARLINGTON REEF Lat: -16.72 Lon: 146.11 Height: 0.0 m
Data from the previous 72 hours. | See also: Recent months at Arlington Reef
Date/Time
EST
Wind Sea
Height
m
Swell Vis
km
Cloud Weather Temp
°C
Press
MSL
hPa
Rain since
9am
mm
Dir  Spd
kts
Gust
kts
Height
m
Period
s
Dir
13/11:00am ESE 20 24 - - - - - - - - 1014.6 -
13/10:30am SE 18 21 - - - - - - - - 1014.9 -
13/10:00am SE 20 24 - - - - - - - - 1015.0 -
13/09:30am SSE 19 28 - - - - - - - - 1014.6 -
13/09:00am SSE 19 23 - - - - - - - - 1014.6 -
13/08:30am SE 21 25 - - - - - - - - 1014.4 -
13/08:00am SE 20 25 - - - - - - - - 1013.9 -
13/07:30am SE 21 26 - - - - - - - - 1013.8 -
13/07:00am SE 21 25 - - - - - - - - 1013.5 -
13/06:30am SE 22 26 - - - - - - - - 1013.0 -
13/06:00am SE 22 26 - - - - - - - - 1012.6 -
13/05:30am SE 21 25 - - - - - - - - 1012.5 -
13/05:00am SE 22 26 - - - - - - - - 1012.2 -
13/04:30am SE 22 26 - - - - - - - - 1012.2 -
13/04:00am SE 22 27 - - - - - - - - 1012.1 -
13/03:30am SE 23 27 - - - - - - - - 1012.1 -
13/03:00am SE 24 28 - - - - - - - - 1012.4 -
13/02:30am SE 23 28 - - - - - - - - 1012.5 -
13/02:00am SE 24 28 - - - - - - - - 1012.5 -
13/01:30am SE 23 28 - - - - - - - - 1012.6 -
13/01:00am SE 24 30 - - - - - - - - 1012.8 -
13/12:30am SE 25 29 - - - - - - - - 1013.0 -
13/12:00am SE 24 28 - - - - - - - - 1013.4 -
 
Date/Time
EST
Wind Sea
Height
m
Swell Vis
km
Cloud Weather Temp
°C
Press
MSL
hPa
Rain since
9am
mm
Dir  Spd
kts
Gust
kts
Height
m
Period
s
Dir
12/11:30pm SE 23 29 - - - - - - - - 1013.5 -
12/11:00pm SE 23 28 - - - - - - - - 1013.5 -
12/10:30pm SSE 18 26 - - - - - - - - 1013.6 -
12/10:00pm SSE 24 29 - - - - - - - - 1013.8 -
12/09:49pm SE 19 30 - - - - - - - - 1013.7 -
12/09:30pm SSE 23 29 - - - - - - - - 1014.0 -
12/09:22pm SSE 18 29 - - - - - - - - 1013.8 -
12/09:18pm SSE 12 20 - - - - - - - - 1013.9 -
12/09:00pm ESE 8 9 - - - - - - - - 1014.1 -
12/08:30pm SE 19 23 - - - - - - - - 1014.0 -
12/08:00pm SE 16 20 - - - - - - - - 1013.4 -
12/07:30pm SSE 17 19 - - - - - - - - 1013.0 -
12/07:00pm SE 17 24 - - - - - - - - 1012.7 -
12/06:30pm SE 14 17 - - - - - - - - 1012.5 -
12/06:00pm SE 20 31 - - - - - - - - 1012.0 -
12/05:30pm SE 19 21 - - - - - - - - 1011.8 -
12/05:00pm SE 20 24 - - - - - - - - 1011.7 -
12/04:30pm SSE 19 23 - - - - - - - - 1011.4 -
12/04:11pm SSE 20 28 - - - - - - - - 1011.3 -
12/04:00pm SE 16 22 - - - - - - - - 1011.5 -
12/03:30pm SE 18 24 - - - - - - - - 1011.6 -
12/03:28pm SE 19 24 - - - - - - - - 1011.7 -
12/03:00pm S 21 24 - - - - - - - - 1010.8 -
12/02:30pm S 19 21 - - - - - - - - 1011.3 -
12/02:00pm S 19 23 - - - - - - - - 1011.6 -
12/01:30pm SSE 19 23 - - - - - - - - 1011.6 -
12/01:00pm S 20 24 - - - - - - - - 1011.9 -
12/12:30pm S 19 22 - - - - - - - - 1012.3 -
12/12:00pm S 19 21 - - - - - - - - 1012.9 -
12/11:30am S 18 21 - - - - - - - - 1013.3 -
12/11:00am S 18 23 - - - - - - - - 1013.5 -
12/10:30am S 14 17 - - - - - - - - 1014.0 -
12/10:00am SSE 15 18 - - - - - - - - 1014.0 -
12/09:30am SE 14 18 - - - - - - - - 1013.9 -
12/09:00am SE 15 19 - - - - - - - - 1013.7 -
12/08:30am SE 14 17 - - - - - - - - 1013.4 -
12/08:00am SE 16 19 - - - - - - - - 1013.2 -
12/07:30am SE 17 21 - - - - - - - - 1013.1 -
12/07:00am SE 17 21 - - - - - - - - 1012.8 -
12/06:30am SE 19 25 - - - - - - - - 1012.6 -
12/06:00am SE 18 22 - - - - - - - - 1012.4 -
12/05:30am SE 17 21 - - - - - - - - 1012.2 -
12/05:00am SE 19 23 - - - - - - - - 1012.0 -
12/04:30am SE 19 25 - - - - - - - - 1012.0 -
12/04:00am SE 19 23 - - - - - - - - 1012.1 -
12/03:30am SE 18 24 - - - - - - - - 1012.3 -
12/03:00am SE 19 22 - - - - - - - - 1012.5 -
12/02:30am SSE 18 24 - - - - - - - - 1012.6 -
12/02:00am SSE 19 24 - - - - - - - - 1012.5 -
12/01:30am SSE 19 26 - - - - - - - - 1012.8 -
12/01:00am SSE 19 23 - - - - - - - - 1013.1 -
12/12:30am SSE 19 24 - - - - - - - - 1013.4 -
12/12:00am SSE 18 24 - - - - - - - - 1013.6 -
 
Date/Time
EST
Wind Sea
Height
m
Swell Vis
km
Cloud Weather Temp
°C
Press
MSL
hPa
Rain since
9am
mm
Dir  Spd
kts
Gust
kts
Height
m
Period
s
Dir
11/11:30pm SSE 19 22 - - - - - - - - 1013.9 -
11/11:00pm SSE 18 22 - - - - - - - - 1014.0 -
11/10:30pm SE 17 22 - - - - - - - - 1014.2 -
11/10:00pm SSE 17 20 - - - - - - - - 1014.4 -
11/09:30pm SE 17 20 - - - - - - - - 1014.5 -
11/09:00pm SE 18 22 - - - - - - - - 1014.4 -
11/08:30pm SSE 18 21 - - - - - - - - 1014.1 -
11/08:00pm SSE 18 22 - - - - - - - - 1013.8 -
11/07:30pm SSE 18 23 - - - - - - - - 1013.4 -
11/07:00pm SSE 19 22 - - - - - - - - 1013.1 -
11/06:30pm SSE 19 22 - - - - - - - - 1012.8 -
11/06:00pm SSE 18 21 - - - - - - - - 1012.6 -
11/05:30pm SSE 19 22 - - - - - - - - 1012.3 -
11/05:00pm SSE 19 23 - - - - - - - - 1012.2 -
11/04:30pm SSE 19 22 - - - - - - - - 1011.8 -
11/04:00pm SSE 19 23 - - - - - - - - 1011.5 -
11/03:30pm SE 19 22 - - - - - - - - 1011.2 -
11/03:00pm SE 19 23 - - - - - - - - 1010.9 -
11/02:30pm SSE 19 22 - - - - - - - - 1011.0 -
11/02:00pm SSE 18 20 - - - - - - - - 1011.4 -
11/01:30pm SSE 17 21 - - - - - - - - 1011.7 -
11/01:00pm SE 17 19 - - - - - - - - 1012.1 -
11/12:30pm SE 17 21 - - - - - - - - 1012.5 -
11/12:00pm SE 18 20 - - - - - - - - 1013.0 -
11/11:30am SE 17 21 - - - - - - - - 1013.4 -
11/11:00am SE 18 21 - - - - - - - - 1013.6 -
11/10:30am SE 19 22 - - - - - - - - 1013.8 -
11/10:00am ESE 18 21 - - - - - - - - 1013.8 -
11/09:30am SE 18 22 - - - - - - - - 1013.6 -
11/09:00am SE 18 22 - - - - - - - - 1013.4 -
11/08:30am SE 17 19 - - - - - - - - 1013.1 -
11/08:00am SE 16 19 - - - - - - - - 1012.8 -
11/07:30am SSE 17 19 - - - - - - - - 1012.4 -
11/07:00am SSE 18 21 - - - - - - - - 1011.9 -
11/06:30am SSE 18 20 - - - - - - - - 1011.8 -
11/06:00am SSE 17 21 - - - - - - - - 1011.6 -
11/05:30am SSE 18 21 - - - - - - - - 1011.3 -
11/05:00am SSE 17 20 - - - - - - - - 1011.1 -
11/04:30am SSE 16 19 - - - - - - - - 1010.9 -
11/04:00am SSE 16 19 - - - - - - - - 1010.8 -
11/03:30am SE 14 18 - - - - - - - - 1011.0 -
11/03:00am SE 14 17 - - - - - - - - 1011.0 -
11/02:30am SE 13 15 - - - - - - - - 1011.1 -
11/02:00am SE 14 16 - - - - - - - - 1011.3 -
11/01:30am SE 14 17 - - - - - - - - 1011.6 -
11/01:00am ESE 14 16 - - - - - - - - 1011.8 -
11/12:30am ESE 14 16 - - - - - - - - 1012.2 -
11/12:00am ESE 15 18 - - - - - - - - 1012.5 -
 
Date/Time
EST
Wind Sea
Height
m
Swell Vis
km
Cloud Weather Temp
°C
Press
MSL
hPa
Rain since
9am
mm
Dir  Spd
kts
Gust
kts
Height
m
Period
s
Dir
10/11:30pm ESE 15 18 - - - - - - - - 1012.8 -
10/11:00pm ESE 16 19 - - - - - - - - 1012.9 -
10/10:30pm SE 16 19 - - - - - - - - 1013.0 -
10/10:00pm SE 17 20 - - - - - - - - 1013.0 -
10/09:30pm SE 16 19 - - - - - - - - 1013.3 -
10/09:00pm SE 17 20 - - - - - - - - 1013.2 -
10/08:30pm SE 17 19 - - - - - - - - 1012.8 -
10/08:00pm SE 18 20 - - - - - - - - 1012.4 -
10/07:30pm SSE 18 22 - - - - - - - - 1011.7 -
10/07:00pm SE 19 21 - - - - - - - - 1011.2 -
10/06:30pm SSE 18 21 - - - - - - - - 1010.9 -
10/06:00pm SSE 16 18 - - - - - - - - 1010.8 -
10/05:30pm SSE 18 21 - - - - - - - - 1010.5 -
10/05:00pm SSE 17 20 - - - - - - - - 1010.3 -
10/04:30pm SSE 19 22 - - - - - - - - 1010.1 -
10/04:00pm SSE 20 23 - - - - - - - - 1010.0 -
10/03:30pm SSE 20 24 - - - - - - - - 1009.8 -
10/03:00pm SSE 20 23 - - - - - - - - 1009.7 -
10/02:30pm SSE 19 22 - - - - - - - - 1009.8 -
10/02:00pm SSE 19 23 - - - - - - - - 1009.8 -
10/01:30pm SSE 18 22 - - - - - - - - 1010.0 -
10/01:00pm SSE 19 21 - - - - - - - - 1009.9 -
10/12:30pm SSE 18 22 - - - - - - - - 1010.3 -
10/12:00pm SSE 16 19 - - - - - - - - 1010.7 -
10/11:30am S 17 20 - - - - - - - - 1011.2 -

Other formats

Comma delimited format used in spreadsheet applications
http://www.bom.gov.au/fwo/IDQ60701/IDQ60701.94284.axf

JavaScript Object Notation format (JSON) in row-major order
http://www.bom.gov.au/fwo/IDQ60701/IDQ60701.94284.json

Data quality

Most of these data are generated automatically and are frequently updated. Quality checks on data are not normally performed. It is possible for incorrect values to appear. Refer to information at About Latest Weather Observations and please check the disclaimer before using these data.